createdAt,value
2019-02-10T00:02:04.886Z,6.52
2019-02-10T00:05:07.983Z,6.55
2019-02-10T00:08:11.066Z,6.57
2019-02-10T00:11:14.167Z,6.59
2019-02-10T00:14:17.260Z,6.60
2019-02-10T00:17:20.345Z,6.61
2019-02-10T00:20:23.437Z,6.61
2019-02-10T00:23:26.535Z,6.62
2019-02-10T00:26:29.627Z,6.64
2019-02-10T00:29:32.813Z,6.63
2019-02-10T00:32:35.908Z,6.62
2019-02-10T00:35:39.018Z,6.65
2019-02-10T00:38:42.191Z,6.67
2019-02-10T00:41:45.275Z,6.66
2019-02-10T00:44:48.379Z,6.68
2019-02-10T00:47:51.450Z,6.69
2019-02-10T00:50:54.847Z,6.69
2019-02-10T00:53:57.961Z,6.70
2019-02-10T00:57:01.055Z,6.68
2019-02-10T01:00:04.200Z,6.66
2019-02-10T01:03:07.340Z,6.66
2019-02-10T01:06:10.415Z,6.67
2019-02-10T01:09:13.524Z,6.71
2019-02-10T01:12:16.605Z,6.70
2019-02-10T01:15:19.700Z,6.69
2019-02-10T01:18:22.785Z,6.71
2019-02-10T01:21:25.875Z,6.72
2019-02-10T01:24:28.972Z,6.78
2019-02-10T01:27:32.079Z,6.83
2019-02-10T01:30:35.172Z,6.90
2019-02-10T01:33:38.351Z,6.99
2019-02-10T01:36:49.217Z,7.04
2019-02-10T01:39:44.547Z,7.04
2019-02-10T01:42:49.127Z,7.02
2019-02-10T01:45:52.261Z,7.13
2019-02-10T01:48:55.349Z,7.14
2019-02-10T01:51:58.450Z,7.17
2019-02-10T01:55:01.541Z,7.07
2019-02-10T01:58:04.635Z,7.00
2019-02-10T02:01:07.717Z,6.93
2019-02-10T02:04:10.817Z,6.90
2019-02-10T02:07:13.895Z,6.87
2019-02-10T02:10:17.004Z,6.94
2019-02-10T02:13:20.070Z,6.99
2019-02-10T02:16:23.197Z,7.04
2019-02-10T02:19:26.276Z,7.14
2019-02-10T02:22:29.371Z,7.14
2019-02-10T02:25:32.547Z,7.22
2019-02-10T02:28:35.643Z,7.21
2019-02-10T02:31:38.751Z,7.23
2019-02-10T02:34:41.816Z,7.13
2019-02-10T02:37:44.932Z,7.09
2019-02-10T02:40:48.007Z,7.08
2019-02-10T02:43:51.109Z,7.09
2019-02-10T02:46:54.202Z,7.11
2019-02-10T02:49:57.279Z,7.17
2019-02-10T02:53:00.388Z,7.20
2019-02-10T02:56:03.488Z,7.30
2019-02-10T02:59:06.560Z,7.33
2019-02-10T03:02:09.652Z,7.39
2019-02-10T03:05:12.753Z,7.40
2019-02-10T03:08:15.811Z,7.43
2019-02-10T03:11:18.889Z,7.42
2019-02-10T03:14:22.041Z,7.32
2019-02-10T03:17:25.230Z,7.26
2019-02-10T03:20:28.318Z,7.32
2019-02-10T03:23:31.402Z,7.36
2019-02-10T03:26:34.494Z,7.35
2019-02-10T03:29:37.585Z,7.31
2019-02-10T03:32:40.718Z,7.23
2019-02-10T03:35:43.784Z,7.20
2019-02-10T03:38:46.873Z,7.19
2019-02-10T03:41:49.963Z,7.22
2019-02-10T03:44:53.262Z,7.19
2019-02-10T03:47:56.350Z,7.23
2019-02-10T03:50:59.453Z,7.22
2019-02-10T03:54:02.497Z,7.20
2019-02-10T03:57:05.551Z,7.29
2019-02-10T04:00:08.880Z,7.32
2019-02-10T04:03:11.947Z,7.35
2019-02-10T04:06:15.103Z,7.30
2019-02-10T04:09:18.168Z,7.29
2019-02-10T04:12:21.283Z,7.33
2019-02-10T04:15:24.382Z,7.30
2019-02-10T04:18:27.475Z,7.35
2019-02-10T04:21:30.541Z,7.31
2019-02-10T04:24:34.682Z,7.33
2019-02-10T04:27:38.026Z,7.31
2019-02-10T04:30:41.092Z,7.28
2019-02-10T04:33:44.254Z,7.36
2019-02-10T04:36:47.350Z,7.36
2019-02-10T04:39:50.442Z,7.36
2019-02-10T04:42:53.532Z,7.31
2019-02-10T04:45:56.604Z,7.34
2019-02-10T04:48:59.738Z,7.34
2019-02-10T04:52:02.821Z,7.35
2019-02-10T04:55:06.059Z,7.37
2019-02-10T04:58:09.203Z,7.40
2019-02-10T05:01:12.297Z,7.44
2019-02-10T05:04:15.399Z,7.47
2019-02-10T05:07:18.467Z,7.53
2019-02-10T05:10:21.866Z,7.62
2019-02-10T05:13:24.666Z,7.61
2019-02-10T05:16:27.724Z,7.63
2019-02-10T05:19:30.852Z,7.66
2019-02-10T05:22:33.932Z,7.68
2019-02-10T05:25:37.038Z,7.71
2019-02-10T05:28:40.130Z,7.71
2019-02-10T05:31:43.229Z,7.80
2019-02-10T05:34:46.308Z,7.78
2019-02-10T05:37:49.400Z,7.87
2019-02-10T05:40:52.487Z,7.86
2019-02-10T05:43:55.579Z,7.95
2019-02-10T05:46:58.671Z,7.88
2019-02-10T05:50:01.768Z,7.86
2019-02-10T05:53:04.899Z,7.91
2019-02-10T05:56:08.058Z,7.97
2019-02-10T05:59:11.139Z,7.98
2019-02-10T06:02:23.009Z,7.96
2019-02-10T06:05:27.832Z,8.05
2019-02-10T06:08:30.922Z,8.06
2019-02-10T06:11:34.066Z,8.05
2019-02-10T06:14:37.158Z,8.08
2019-02-10T06:17:40.250Z,8.05
2019-02-10T06:20:43.334Z,8.09
2019-02-10T06:23:46.439Z,7.99
2019-02-10T06:26:49.534Z,8.15
2019-02-10T06:29:52.618Z,8.19
2019-02-10T06:32:55.725Z,8.24
2019-02-10T06:35:59.796Z,8.14
2019-02-10T06:39:02.976Z,8.07
2019-02-10T06:42:06.118Z,8.06
2019-02-10T06:45:11.552Z,8.17
2019-02-10T06:48:14.663Z,8.13
2019-02-10T06:51:17.724Z,8.10
2019-02-10T06:54:20.798Z,8.05
2019-02-10T06:57:26.067Z,8.00
2019-02-10T07:01:01.362Z,8.07
2019-02-10T07:04:11.579Z,8.05
2019-02-10T07:07:14.660Z,8.07
2019-02-10T07:10:17.904Z,8.10
2019-02-10T07:13:29.387Z,8.16
2019-02-10T07:16:35.967Z,8.20
2019-02-10T07:19:50.396Z,8.26
2019-02-10T07:22:56.227Z,8.33
2019-02-10T07:26:01.155Z,8.38
2019-02-10T07:29:17.158Z,8.41
2019-02-10T07:32:25.082Z,8.34
2019-02-10T07:37:42.324Z,8.32
2019-02-10T07:40:59.141Z,8.37
2019-02-10T07:44:16.561Z,8.39
2019-02-10T07:47:34.484Z,8.37
2019-02-10T07:51:55.815Z,8.36
2019-02-10T07:55:28.961Z,8.38
2019-02-10T07:58:42.063Z,8.47
2019-02-10T08:04:03.216Z,8.63
2019-02-10T08:07:25.583Z,8.62
2019-02-10T08:12:44.000Z,8.58
2019-02-10T08:16:01.824Z,8.50
2019-02-10T08:19:45.643Z,8.54
2019-02-10T08:23:00.771Z,8.64
2019-02-10T08:26:53.524Z,8.71
2019-02-10T08:30:06.925Z,8.84
2019-02-10T08:33:53.456Z,9.10
2019-02-10T08:37:22.302Z,9.53
2019-02-10T08:40:39.464Z,9.88
2019-02-10T08:43:50.552Z,10.00
2019-02-10T08:49:05.688Z,10.22
2019-02-10T08:53:22.573Z,10.23
2019-02-10T08:56:25.650Z,10.39
2019-02-10T08:59:28.736Z,10.52
2019-02-10T09:02:31.839Z,10.90
2019-02-10T09:05:34.927Z,11.12
2019-02-10T09:08:38.019Z,11.02
2019-02-10T09:11:41.094Z,11.09
2019-02-10T09:14:44.204Z,11.11
2019-02-10T09:17:47.378Z,11.23
2019-02-10T09:20:50.484Z,11.35
2019-02-10T09:23:53.549Z,11.72
2019-02-10T09:26:56.669Z,11.98
2019-02-10T09:29:59.771Z,12.16
2019-02-10T09:33:02.863Z,12.30
2019-02-10T09:36:05.938Z,12.63
2019-02-10T09:39:10.957Z,12.54
2019-02-10T09:42:12.239Z,12.55
2019-02-10T09:45:15.339Z,12.69
2019-02-10T09:48:18.508Z,12.87
2019-02-10T09:51:21.609Z,13.02
2019-02-10T09:54:24.703Z,13.16
2019-02-10T09:57:27.794Z,13.17
2019-02-10T10:00:30.919Z,13.30
2019-02-10T10:03:33.987Z,13.52
2019-02-10T10:06:37.069Z,13.69
2019-02-10T10:09:40.272Z,13.78
2019-02-10T10:12:43.356Z,14.01
2019-02-10T10:15:46.464Z,14.03
2019-02-10T10:18:49.656Z,14.17
2019-02-10T10:21:52.747Z,13.99
2019-02-10T10:24:55.939Z,13.89
2019-02-10T10:27:59.139Z,13.89
2019-02-10T10:31:02.233Z,13.94
2019-02-10T10:34:05.419Z,13.86
2019-02-10T10:37:08.949Z,13.91
2019-02-10T10:40:12.149Z,13.94
2019-02-10T10:43:15.219Z,13.88
2019-02-10T10:46:18.381Z,13.84
2019-02-10T10:49:21.484Z,13.88
2019-02-10T10:52:24.567Z,13.79
2019-02-10T10:55:27.674Z,13.71
2019-02-10T10:58:30.784Z,13.72
2019-02-10T11:01:33.855Z,13.64
2019-02-10T11:04:38.099Z,13.62
2019-02-10T11:07:42.832Z,13.63
2019-02-10T11:10:46.009Z,13.54
2019-02-10T11:13:49.203Z,13.50
2019-02-10T11:16:52.316Z,13.55
2019-02-10T11:19:55.500Z,13.50
2019-02-10T11:22:58.683Z,13.43
2019-02-10T11:26:01.858Z,13.50
2019-02-10T11:29:04.965Z,13.37
2019-02-10T11:32:08.028Z,13.43
2019-02-10T11:35:11.151Z,13.34
2019-02-10T11:38:14.240Z,13.33
2019-02-10T11:41:17.421Z,13.43
2019-02-10T11:44:20.527Z,13.31
2019-02-10T11:47:23.647Z,13.31
2019-02-10T11:50:26.818Z,13.34
2019-02-10T11:53:29.879Z,13.37
2019-02-10T11:56:32.976Z,13.45
2019-02-10T11:59:36.275Z,13.38
2019-02-10T12:02:39.347Z,13.30
2019-02-10T12:05:42.460Z,13.18
2019-02-10T12:08:45.579Z,13.05
2019-02-10T12:11:48.759Z,12.96
2019-02-10T12:14:51.912Z,12.69
2019-02-10T12:17:55.079Z,12.71
2019-02-10T12:20:58.199Z,12.41
2019-02-10T12:24:01.339Z,12.17
2019-02-10T12:27:04.425Z,11.86
2019-02-10T12:30:09.805Z,11.64
2019-02-10T12:33:12.871Z,11.50
2019-02-10T12:36:15.986Z,11.37
2019-02-10T12:39:19.035Z,11.25
2019-02-10T12:42:22.144Z,11.06
2019-02-10T12:45:25.408Z,10.96
2019-02-10T12:48:28.537Z,10.84
2019-02-10T12:51:31.599Z,10.73
2019-02-10T12:54:34.824Z,10.66
2019-02-10T12:57:37.906Z,10.70
2019-02-10T13:00:41.030Z,10.73
2019-02-10T13:03:44.187Z,10.78
2019-02-10T13:06:47.263Z,10.97
2019-02-10T13:09:50.387Z,10.87
2019-02-10T13:12:53.613Z,10.80
2019-02-10T13:15:56.659Z,10.78
2019-02-10T13:18:59.760Z,10.79
2019-02-10T13:22:02.855Z,10.84
2019-02-10T13:25:06.068Z,10.77
2019-02-10T13:28:09.233Z,10.75
2019-02-10T13:31:12.315Z,10.72
2019-02-10T13:34:15.421Z,10.66
2019-02-10T13:37:18.503Z,10.72
2019-02-10T13:40:21.599Z,10.70
2019-02-10T13:43:24.693Z,10.75
2019-02-10T13:46:27.792Z,10.74
2019-02-10T13:49:30.992Z,10.83
2019-02-10T13:52:34.554Z,10.73
2019-02-10T13:55:37.848Z,10.72
2019-02-10T13:58:41.851Z,10.66
2019-02-10T14:01:44.987Z,10.63
2019-02-10T14:04:48.091Z,10.60
2019-02-10T14:07:51.441Z,10.63
2019-02-10T14:10:54.263Z,10.60
2019-02-10T14:13:57.359Z,10.60
2019-02-10T14:17:01.899Z,10.51
2019-02-10T14:20:04.604Z,10.48
2019-02-10T14:23:07.789Z,10.52
2019-02-10T14:26:10.948Z,10.54
2019-02-10T14:29:14.039Z,10.51
2019-02-10T14:32:17.121Z,10.48
2019-02-10T14:35:20.338Z,10.41
2019-02-10T14:38:24.729Z,10.30
2019-02-10T14:41:26.643Z,10.29
2019-02-10T14:44:29.708Z,10.17
2019-02-10T14:47:32.780Z,10.09
2019-02-10T14:50:35.840Z,9.75
2019-02-10T14:53:38.902Z,9.37
2019-02-10T14:56:41.940Z,9.07
2019-02-10T14:59:45.059Z,8.84
2019-02-10T15:02:48.160Z,8.77
2019-02-10T15:05:51.243Z,8.68
2019-02-10T15:08:54.341Z,8.71
2019-02-10T15:11:57.445Z,8.80
2019-02-10T15:15:00.528Z,8.82
2019-02-10T15:18:03.639Z,8.81
2019-02-10T15:21:06.718Z,8.85
2019-02-10T15:24:09.907Z,8.90
2019-02-10T15:27:12.993Z,8.91
2019-02-10T15:30:16.116Z,8.94
2019-02-10T15:33:19.178Z,8.95
2019-02-10T15:36:22.241Z,8.91
2019-02-10T15:39:25.386Z,8.85
2019-02-10T15:42:28.436Z,8.85
2019-02-10T15:45:31.546Z,8.70
2019-02-10T15:48:34.643Z,8.58
2019-02-10T15:51:37.707Z,8.53
2019-02-10T15:54:40.767Z,8.42
2019-02-10T15:57:43.942Z,8.42
2019-02-10T16:00:47.133Z,8.27
2019-02-10T16:03:50.316Z,8.28
2019-02-10T16:06:53.392Z,8.24
2019-02-10T16:09:56.490Z,8.16
2019-02-10T16:12:59.579Z,8.08
2019-02-10T16:16:02.652Z,8.15
2019-02-10T16:19:05.722Z,8.07
2019-02-10T16:22:08.855Z,8.05
2019-02-10T16:25:11.954Z,7.96
2019-02-10T16:28:15.147Z,7.89
2019-02-10T16:31:18.250Z,7.86
2019-02-10T16:34:21.306Z,7.91
2019-02-10T16:37:24.371Z,7.88
2019-02-10T16:40:27.543Z,7.86
2019-02-10T16:43:30.704Z,7.89
2019-02-10T16:46:33.812Z,7.81
2019-02-10T16:49:36.950Z,7.80
2019-02-10T16:52:40.124Z,7.88
2019-02-10T16:55:43.284Z,7.88
2019-02-10T16:58:46.375Z,7.89
2019-02-10T17:01:49.484Z,7.88
2019-02-10T17:04:52.591Z,7.79
2019-02-10T17:07:55.758Z,7.73
2019-02-10T17:10:58.880Z,7.72
2019-02-10T17:14:02.028Z,7.73
2019-02-10T17:17:05.151Z,7.72
2019-02-10T17:20:08.723Z,7.75
2019-02-10T17:23:11.923Z,7.78
2019-02-10T17:26:15.019Z,7.80
2019-02-10T17:29:18.295Z,7.83
2019-02-10T17:32:21.478Z,7.81
2019-02-10T17:35:24.652Z,7.90
2019-02-10T17:38:27.754Z,7.88
2019-02-10T17:41:35.260Z,7.86
2019-02-10T17:44:38.450Z,7.83
2019-02-10T17:47:41.521Z,7.85
2019-02-10T17:50:44.592Z,7.80
2019-02-10T17:53:47.660Z,7.77
2019-02-10T17:56:50.719Z,7.77
2019-02-10T17:59:53.841Z,7.83
2019-02-10T18:02:56.934Z,7.85
2019-02-10T18:06:00.021Z,7.91
2019-02-10T18:09:03.140Z,7.98
2019-02-10T18:12:06.291Z,8.00
2019-02-10T18:17:16.756Z,8.05
2019-02-10T18:20:25.951Z,8.10
2019-02-10T18:23:39.216Z,8.01
2019-02-10T18:26:59.391Z,8.04
2019-02-10T18:30:07.836Z,8.04
2019-02-10T18:33:16.398Z,8.05
2019-02-10T18:36:23.655Z,8.03
2019-02-10T18:39:31.938Z,7.96
2019-02-10T18:42:41.228Z,7.96
2019-02-10T18:45:48.528Z,7.96
2019-02-10T18:49:00.885Z,7.82
2019-02-10T18:52:11.216Z,7.82
2019-02-10T18:55:38.501Z,7.72
2019-02-10T18:58:53.987Z,7.67
2019-02-10T19:01:54.215Z,7.65
2019-02-10T19:05:05.504Z,7.65
2019-02-10T19:08:14.689Z,7.63
2019-02-10T19:11:24.828Z,7.64
2019-02-10T19:14:50.024Z,7.61
2019-02-10T19:18:00.155Z,7.57
2019-02-10T19:21:10.479Z,7.56
2019-02-10T19:24:35.763Z,7.50
2019-02-10T19:28:48.187Z,7.39
2019-02-10T19:32:00.527Z,7.40
2019-02-10T19:35:09.227Z,7.49
2019-02-10T19:39:17.423Z,7.45
2019-02-10T19:42:30.599Z,7.32
2019-02-10T19:45:39.136Z,7.26
2019-02-10T19:50:49.613Z,7.13
2019-02-10T19:55:59.086Z,7.10
2019-02-10T19:59:07.486Z,7.07
2019-02-10T20:02:20.320Z,7.03
2019-02-10T20:05:27.149Z,7.00
2019-02-10T20:08:35.514Z,6.89
2019-02-10T20:11:44.711Z,6.73
2019-02-10T20:14:52.116Z,6.57
2019-02-10T20:18:03.432Z,6.49
2019-02-10T20:21:12.026Z,6.45
2019-02-10T20:24:19.267Z,6.39
2019-02-10T20:27:27.871Z,6.32
2019-02-10T20:30:36.407Z,6.28
2019-02-10T20:34:14.712Z,6.25
2019-02-10T20:37:22.862Z,6.25
2019-02-10T20:40:30.216Z,6.19
2019-02-10T20:43:43.440Z,6.19
2019-02-10T20:46:53.776Z,6.25
2019-02-10T20:50:01.015Z,6.25
2019-02-10T20:54:13.308Z,6.25
2019-02-10T20:57:20.599Z,6.30
2019-02-10T21:00:28.693Z,6.24
2019-02-10T21:03:39.883Z,6.21
2019-02-10T21:06:47.203Z,6.21
2019-02-10T21:11:57.580Z,6.26
2019-02-10T21:15:06.834Z,6.17
2019-02-10T21:18:20.127Z,6.21
2019-02-10T21:21:28.458Z,6.25
2019-02-10T21:24:36.948Z,6.23
2019-02-10T21:27:44.255Z,6.20
2019-02-10T21:30:52.746Z,6.18
2019-02-10T21:34:05.075Z,6.19
2019-02-10T21:37:16.331Z,6.29
2019-02-10T21:40:24.728Z,6.28
2019-02-10T21:43:35.073Z,6.29
2019-02-10T21:46:46.335Z,6.36
2019-02-10T21:49:49.443Z,6.26
2019-02-10T21:52:52.549Z,6.37
2019-02-10T21:55:55.725Z,6.32
2019-02-10T21:58:58.856Z,6.38
2019-02-10T22:02:02.041Z,6.36
2019-02-10T22:05:05.636Z,6.47
2019-02-10T22:08:08.707Z,6.46
2019-02-10T22:11:11.807Z,6.57
2019-02-10T22:14:14.943Z,6.50
2019-02-10T22:17:18.112Z,6.50
2019-02-10T22:20:21.305Z,6.49
2019-02-10T22:23:24.464Z,6.51
2019-02-10T22:26:27.563Z,6.56
2019-02-10T22:29:30.659Z,6.59
2019-02-10T22:32:33.751Z,6.58
2019-02-10T22:35:36.854Z,6.66
2019-02-10T22:38:40.862Z,6.56
2019-02-10T22:41:43.940Z,6.64
2019-02-10T22:44:47.011Z,6.78
2019-02-10T22:47:50.150Z,6.75
2019-02-10T22:50:53.207Z,6.75
2019-02-10T22:53:56.322Z,6.80
2019-02-10T22:56:59.410Z,6.68
2019-02-10T23:00:02.502Z,6.67
2019-02-10T23:03:05.599Z,6.64
2019-02-10T23:06:08.692Z,6.67
2019-02-10T23:09:16.795Z,6.66
2019-02-10T23:12:19.901Z,6.66
2019-02-10T23:15:22.987Z,6.59
2019-02-10T23:18:26.075Z,6.63
2019-02-10T23:21:29.143Z,6.53
2019-02-10T23:24:32.268Z,6.49
2019-02-10T23:27:35.340Z,6.52
2019-02-10T23:30:38.459Z,6.46
2019-02-10T23:33:41.563Z,6.49
2019-02-10T23:36:44.742Z,6.46
2019-02-10T23:39:47.836Z,6.44
2019-02-10T23:42:50.935Z,6.41
2019-02-10T23:45:54.124Z,6.46
2019-02-10T23:48:57.211Z,6.44
2019-02-10T23:52:00.310Z,6.39
2019-02-10T23:55:03.389Z,6.40
2019-02-10T23:58:06.472Z,6.41
